This is the latest recevied weather packets stored in our database for station/object K7UHP. If no packets are shown the sender has not sent any weather packets the latest 10 day(s).
| Time | Temp. | Humidity | Pressure | Rain* | Wind** | Luminosity | Snow |
|---|---|---|---|---|---|---|---|
| 1777453290 | 5° C | 62% | 1019.8 hPa | 0 mm | - | - | - |
| 1777452690 | 6.11° C | 57% | 1019.7 hPa | 0 mm | - | - | - |
| 1777452089 | 6.67° C | 55% | 1019.7 hPa | 0 mm | - | - | - |
| 1777451488 | 7.22° C | 49% | 1019.8 hPa | 0 mm | - | - | - |
| 1777450888 | 6.67° C | 51% | 1019.9 hPa | 0 mm | - | - | - |
| 1777450287 | 7.22° C | 50% | 1020 hPa | 0 mm | - | - | - |
| 1777449686 | 6.67° C | 52% | 1020.1 hPa | 0 mm | - | - | - |
| 1777449085 | 6.67° C | 53% | 1020.2 hPa | 0 mm | - | - | - |
| 1777448484 | 6.67° C | 52% | 1020.2 hPa | 0 mm | - | - | - |
| 1777447884 | 6.67° C | 53% | 1020.4 hPa | 0 mm | - | - | - |
| 1777447283 | 6.67° C | 53% | 1020.4 hPa | 0 mm | - | - | - |
| 1777446682 | 6.11° C | 54% | 1020.5 hPa | 0 mm | - | - | - |
| 1777446081 | 6.67° C | 52% | 1020.5 hPa | 0 mm | - | - | - |
| 1777445481 | 6.67° C | 52% | 1020.5 hPa | 0 mm | - | - | - |
| 1777444880 | 7.22° C | 51% | 1020.5 hPa | 0 mm | - | - | - |
| 1777444279 | 6.67° C | 53% | 1020.5 hPa | 0 mm | - | - | - |
| 1777443678 | 7.22° C | 53% | 1020.5 hPa | 0 mm | - | - | - |
| 1777443077 | 7.78° C | 47% | 1020.6 hPa | 0 mm | - | - | - |
| 1777442476 | 7.78° C | 46% | 1020.6 hPa | 0 mm | - | - | - |
| 1777441876 | 8.33° C | 45% | 1020.5 hPa | 0 mm | - | - | - |
| 1777441275 | 8.33° C | 44% | 1020.5 hPa | 0 mm | - | - | - |
| 1777440674 | 8.33° C | 44% | 1020.5 hPa | 0 mm | - | - | - |
| 1777440073 | 8.33° C | 44% | 1020.4 hPa | 0 mm | - | - | - |
| 1777439473 | 8.89° C | 42% | 1020.4 hPa | 0 mm | - | - | - |
| 1777438872 | 9.44° C | 40% | 1020.3 hPa | 0 mm | - | - | - |
* Rain latest hour (hover to see other rain measurements)
** Current wind speed in m/s (hover to see current wind gust speed)